Chantaco — FMLM — position and weather

sailwx.info

Track history (hours):
 
Tides and Currents Weather Stations Pressure Air Temp Water Temp Dewpoint Dewpoint Depression Visibility Wind Speed Wind Dir Waves Ship Positions

Chantaco

Last reported at 2017-Apr-28 04:00 UTC. Time now 2017-Apr-28 04:22 UTC.
Position N 53°38' W 000°10'.

Length 143 m; draft 6.5 m.

Type: Tanker. MMSI: 228330700.

Date/timePositionNaut miles runAvg speedWind from/ knotsBaromVisibWave heightAir tempDewpointWater temp
2017-Apr-28 04:00N 53°38' W 000°10'0 0.0
2017-Apr-28 03:30N 53°38' W 000°10'0 0.0
2017-Apr-28 03:00N 53°38' W 000°10'0 0.0
2017-Apr-28 02:30N 53°38' W 000°10'0 0.0
2017-Apr-28 02:00N 53°38' W 000°10'0 0.0
2017-Apr-28 01:30N 53°38' W 000°10'0 0.0
2017-Apr-28 01:00N 53°38' W 000°10'2 3.0
2017-Apr-28 00:30N 53°37' W 000°07'4 8.8
2017-Apr-28 00:00N 53°37' W 000°00'5 9.4
2017-Apr-27 23:30N 53°34' E 000°06'39 1.8
2017-Apr-27 02:26N 53°22' E 001°08'4 9.6
2017-Apr-27 02:00N 53°18' E 001°12'510.2
2017-Apr-27 01:30N 53°14' E 001°17'510.7
2017-Apr-27 01:00N 53°09' E 001°21'510.9
2017-Apr-27 00:30N 53°05' E 001°26'611.7
2017-Apr-27 00:00N 52°60' E 001°32'611.6
2017-Apr-26 23:30N 52°56' E 001°38'510.6
2017-Apr-26 23:00N 52°52' E 001°45'510.2
2017-Apr-26 22:30N 52°49' E 001°51'5 9.2
2017-Apr-26 22:00N 52°46' E 001°58'4 8.0
2017-Apr-26 21:30N 52°43' E 002°01'4 7.7
2017-Apr-26 21:00N 52°39' E 002°03'4 7.2
2017-Apr-26 20:30N 52°36' E 002°05'62 8.3
2017-Apr-26 13:01N 51°34' E 002°18'1 9.1
2017-Apr-26 12:51N 51°33' E 002°17'4 9.3
2017-Apr-26 12:22N 51°30' E 002°12'4 9.4
2017-Apr-26 11:55N 51°27' E 002°08'4 9.4
2017-Apr-26 11:30N 51°24' E 002°04'5 9.5
2017-Apr-26 11:00N 51°20' E 001°59'5 9.5
2017-Apr-26 10:30N 51°17' E 001°54'5 9.7
2017-Apr-26 10:00N 51°13' E 001°49'5 9.1
2017-Apr-26 09:30N 51°09' E 001°44'4 8.0
2017-Apr-26 09:00N 51°06' E 001°40'4 7.0
2017-Apr-26 08:30N 51°03' E 001°37'3 6.0
2017-Apr-26 08:00N 51°01' E 001°34'3 6.3
2017-Apr-26 07:30N 50°59' E 001°31'4 7.2
2017-Apr-26 07:00N 50°56' E 001°27'4 7.6
2017-Apr-26 06:30N 50°52' E 001°25'4 8.0
2017-Apr-26 06:00N 50°49' E 001°24'4 8.4
2017-Apr-26 05:30N 50°44' E 001°22'55 8.7
2017-Apr-25 23:09N 50°04' E 000°23'1 8.7
2017-Apr-25 23:00N 50°03' E 000°22'4 8.1
2017-Apr-25 22:30N 49°60' E 000°18'4 8.6
2017-Apr-25 22:00N 49°57' E 000°14'5 9.3
2017-Apr-25 21:30N 49°53' E 000°09'5 9.9
2017-Apr-25 21:00N 49°49' E 000°04'510.2
2017-Apr-25 20:30N 49°46' W 000°01'5 9.3
2017-Apr-25 20:00N 49°41' W 000°04'5 9.8
2017-Apr-25 19:30N 49°36' W 000°05'5 9.2
2017-Apr-25 19:00N 49°32' W 000°05'3 5.6
2017-Apr-25 18:30N 49°29' W 000°03'0 0.1
2017-Apr-25 18:00N 49°29' W 000°03'0 0.1
2017-Apr-25 17:30N 49°29' W 000°03'0 0.1
2017-Apr-25 17:00N 49°29' W 000°03'0 0.0
2017-Apr-25 16:30N 49°29' W 000°03'0 0.0
2017-Apr-25 16:00N 49°29' W 000°03'0 0.0
2017-Apr-25 15:30N 49°29' W 000°03'0 0.0
2017-Apr-25 15:00N 49°29' W 000°03'0 0.0
2017-Apr-25 14:30N 49°29' W 000°03'0 0.0
2017-Apr-25 13:30N 49°29' W 000°03'0 0.0
2017-Apr-25 13:00N 49°29' W 000°03'0 0.0
2017-Apr-25 12:30N 49°29' W 000°03'0 0.0
2017-Apr-25 12:00N 49°29' W 000°03'0 0.0
2017-Apr-25 11:30N 49°29' W 000°03'0 0.0
2017-Apr-25 11:00N 49°29' W 000°03'0 0.0
2017-Apr-25 10:30N 49°29' W 000°03'0 0.1
2017-Apr-25 10:00N 49°29' W 000°03'0 0.1
2017-Apr-25 09:30N 49°29' W 000°03'0 0.1
2017-Apr-25 09:00N 49°29' W 000°03'0 0.0
2017-Apr-25 08:30N 49°29' W 000°03'0 0.0
2017-Apr-25 08:00N 49°29' W 000°03'0 0.0
2017-Apr-25 07:30N 49°29' W 000°03'0 0.0
2017-Apr-25 07:00N 49°29' W 000°03'0 0.0
2017-Apr-25 06:30N 49°29' W 000°03'0 0.0
2017-Apr-25 06:00N 49°29' W 000°03'0 0.1
2017-Apr-25 05:30N 49°29' W 000°03'0 0.1
2017-Apr-25 05:00N 49°29' W 000°03'0 0.0
2017-Apr-25 04:30N 49°29' W 000°03'0 0.0
2017-Apr-25 04:00N 49°29' W 000°03'0 0.0
2017-Apr-25 03:30N 49°29' W 000°03'0 0.0
2017-Apr-25 03:00N 49°29' W 000°03'0 0.0
2017-Apr-25 02:30N 49°29' W 000°03'0 0.0
2017-Apr-25 02:00N 49°29' W 000°03'0 0.0
2017-Apr-25 01:30N 49°29' W 000°03'0 0.0
2017-Apr-25 01:00N 49°29' W 000°03'0 0.0
2017-Apr-25 00:29N 49°29' W 000°03'0 0.0
2017-Apr-24 23:59N 49°29' W 000°03'0 0.0
2017-Apr-24 23:29N 49°29' W 000°03'0 0.1
2017-Apr-24 22:59N 49°29' W 000°03'0 0.1
2017-Apr-24 22:29N 49°29' W 000°03'0 0.0
2017-Apr-24 21:59N 49°29' W 000°03'0 0.1
2017-Apr-24 21:29N 49°29' W 000°03'0 0.0
2017-Apr-24 20:59N 49°29' W 000°03'0 0.0
2017-Apr-24 20:29N 49°29' W 000°03'0 0.0
2017-Apr-24 19:59N 49°29' W 000°03'0 0.0
2017-Apr-24 19:29N 49°29' W 000°03'0 0.0
2017-Apr-24 18:59N 49°29' W 000°03'0 0.0
2017-Apr-24 18:29N 49°29' W 000°03'0 0.1
2017-Apr-24 17:59N 49°29' W 000°03'0 0.1
2017-Apr-24 17:29N 49°29' W 000°03'0 0.0
2017-Apr-24 16:59N 49°29' W 000°03'0 0.1
2017-Apr-24 16:29N 49°29' W 000°03'0 0.1
2017-Apr-24 15:59N 49°29' W 000°03'0 0.0
2017-Apr-24 15:26N 49°29' W 000°03'0 0.0
2017-Apr-24 14:59N 49°29' W 000°03'0 0.0
2017-Apr-24 14:29N 49°29' W 000°03'0 0.0
2017-Apr-24 13:29N 49°29' W 000°03'0 0.0
2017-Apr-24 12:59N 49°29' W 000°03'0 0.1
2017-Apr-24 12:29N 49°29' W 000°03'0 0.1
2017-Apr-24 11:59N 49°29' W 000°03'0 0.0
2017-Apr-24 11:29N 49°29' W 000°03'0 0.1
2017-Apr-24 10:59N 49°29' W 000°03'0 0.0
2017-Apr-24 10:29N 49°29' W 000°03'0 0.0
2017-Apr-24 09:59N 49°29' W 000°03'0 0.0
2017-Apr-24 09:29N 49°29' W 000°03'0 0.0
2017-Apr-24 08:59N 49°29' W 000°03'0 0.0
2017-Apr-24 08:29N 49°29' W 000°03'0 0.0
2017-Apr-24 07:59N 49°29' W 000°03'0 0.0
2017-Apr-24 07:29N 49°29' W 000°03'0 0.0
2017-Apr-24 06:59N 49°29' W 000°03'0 0.0
2017-Apr-24 06:29N 49°29' W 000°03'0 0.0
2017-Apr-24 05:59N 49°29' W 000°03'0 0.1
2017-Apr-24 05:29N 49°29' W 000°03'0 0.0
2017-Apr-24 04:59N 49°29' W 000°03'0 0.1
2017-Apr-24 04:26N 49°29' W 000°03'0 0.1
2017-Apr-24 03:59N 49°29' W 000°03'0 0.1
2017-Apr-24 03:29N 49°29' W 000°03'0 0.1
2017-Apr-24 02:59N 49°29' W 000°03'0 0.0
2017-Apr-24 02:29N 49°29' W 000°03'0 0.0
2017-Apr-24 01:59N 49°29' W 000°03'0 0.0
2017-Apr-24 01:29N 49°29' W 000°03'0 0.0
2017-Apr-24 00:59N 49°29' W 000°03'0 0.0
2017-Apr-24 00:29N 49°29' W 000°03'0 0.0
2017-Apr-23 23:59N 49°29' W 000°03'0 0.0
2017-Apr-23 23:29N 49°29' W 000°03'0 0.1
2017-Apr-23 22:59N 49°29' W 000°03'0 0.0
2017-Apr-23 22:29N 49°29' W 000°03'0 0.0
2017-Apr-23 21:59N 49°29' W 000°03'0 0.0
2017-Apr-23 21:29N 49°29' W 000°03'0 0.2
2017-Apr-23 20:59N 49°29' W 000°03'0 0.1
2017-Apr-23 20:29N 49°29' W 000°03'0 0.0
2017-Apr-23 19:59N 49°29' W 000°03'0 0.1
2017-Apr-23 19:29N 49°29' W 000°03'0 0.0
2017-Apr-23 18:59N 49°29' W 000°03'0 0.0
2017-Apr-23 18:29N 49°29' W 000°03'0 0.0
2017-Apr-23 17:59N 49°29' W 000°03'0 0.2
2017-Apr-23 17:29N 49°29' W 000°03'0 0.1
2017-Apr-23 16:59N 49°29' W 000°03'0 0.0
2017-Apr-23 16:29N 49°29' W 000°03'0 0.0
2017-Apr-23 15:59N 49°29' W 000°03'0 0.0
2017-Apr-23 15:29N 49°29' W 000°03'0 0.0
2017-Apr-23 14:59N 49°29' W 000°03'0 0.0
2017-Apr-23 13:59N 49°29' W 000°03'0 0.0
2017-Apr-23 13:29N 49°29' W 000°03'0 0.0
2017-Apr-23 12:59N 49°29' W 000°03'0 0.0
2017-Apr-23 12:28N 49°29' W 000°03'0 0.0
2017-Apr-23 11:58N 49°29' W 000°03'0 0.0
2017-Apr-23 11:28N 49°29' W 000°03'0 0.0
2017-Apr-23 10:58N 49°29' W 000°03'0 0.1
2017-Apr-23 10:28N 49°29' W 000°03'0 0.0
2017-Apr-23 09:58N 49°29' W 000°03'0 0.1
2017-Apr-23 09:28N 49°29' W 000°03'0 0.1
2017-Apr-23 08:58N 49°29' W 000°03'0 0.1
2017-Apr-23 08:28N 49°29' W 000°03'0 0.0
2017-Apr-23 07:58N 49°29' W 000°03'0 0.0
2017-Apr-23 07:28N 49°29' W 000°03'0 0.0
2017-Apr-23 06:58N 49°29' W 000°03'0 0.0
2017-Apr-23 06:28N 49°29' W 000°03'0 0.0
2017-Apr-23 05:58N 49°29' W 000°03'0 0.0
2017-Apr-23 05:28N 49°29' W 000°03'0 0.1
2017-Apr-23 04:58N 49°29' W 000°03'0 0.0
2017-Apr-23 04:28N 49°29' W 000°03'0 0.1
2017-Apr-23 03:58N 49°29' W 000°03'0 0.1
2017-Apr-23 03:28N 49°29' W 000°03'0 0.1
2017-Apr-23 02:58N 49°29' W 000°03'0 0.0
2017-Apr-23 02:28N 49°29' W 000°03'0 0.0
2017-Apr-23 01:58N 49°29' W 000°03'0 0.0
2017-Apr-23 01:28N 49°29' W 000°03'0 0.0
2017-Apr-23 00:58N 49°29' W 000°03'0 0.0
2017-Apr-23 00:28N 49°29' W 000°03'0 0.0
2017-Apr-22 23:58N 49°29' W 000°03'0 0.0
2017-Apr-22 23:28N 49°29' W 000°03'0 0.0
2017-Apr-22 22:58N 49°29' W 000°03'0 0.0
2017-Apr-22 22:28N 49°29' W 000°03'0 0.0
2017-Apr-22 21:58N 49°29' W 000°03'0 0.0
2017-Apr-22 21:28N 49°29' W 000°03'0 0.0
2017-Apr-22 20:58N 49°29' W 000°03'0 0.1
2017-Apr-22 20:28N 49°29' W 000°03'0 0.1
2017-Apr-22 19:58N 49°29' W 000°03'0 0.1
2017-Apr-22 19:28N 49°29' W 000°03'0 0.0
2017-Apr-22 18:58N 49°29' W 000°03'0 0.1
2017-Apr-22 18:28N 49°29' W 000°03'0 0.1
2017-Apr-22 17:58N 49°29' W 000°03'0 0.3
2017-Apr-22 17:28N 49°29' W 000°03'0 0.0
2017-Apr-22 16:58N 49°29' W 000°03'0 0.0
2017-Apr-22 16:28N 49°29' W 000°03'0 0.0
2017-Apr-22 15:58N 49°29' W 000°03'0 0.1
2017-Apr-22 15:28N 49°29' W 000°03'0 0.1
2017-Apr-22 14:58N 49°29' W 000°03'0 0.1
2017-Apr-22 14:28N 49°29' W 000°03'0 0.0
2017-Apr-22 13:28N 49°29' W 000°03'0 0.0
2017-Apr-22 12:58N 49°29' W 000°03'0 0.0
2017-Apr-22 12:28N 49°29' W 000°03'0 0.0
2017-Apr-22 11:58N 49°29' W 000°03'0 0.0
2017-Apr-22 11:28N 49°29' W 000°03'0 0.0
2017-Apr-22 10:58N 49°29' W 000°03'0 0.0
2017-Apr-22 10:28N 49°29' W 000°03'0 0.0
2017-Apr-22 09:58N 49°29' W 000°03'0 0.0
2017-Apr-22 09:28N 49°29' W 000°03'0 0.0
2017-Apr-22 08:58N 49°29' W 000°03'0 0.1
2017-Apr-22 08:28N 49°29' W 000°03'0 0.2
2017-Apr-22 07:58N 49°29' W 000°03'0 0.1
2017-Apr-22 07:28N 49°29' W 000°03'0 0.0
2017-Apr-22 06:58N 49°29' W 000°03'0 0.0
2017-Apr-22 06:28N 49°29' W 000°03'0 0.0
2017-Apr-22 05:58N 49°29' W 000°03'0 0.0
2017-Apr-22 05:28N 49°29' W 000°03'0 0.0
2017-Apr-22 04:58N 49°29' W 000°03'0 0.0
2017-Apr-22 04:28N 49°29' W 000°03'0 0.0
2017-Apr-22 03:58N 49°29' W 000°03'0 0.1
2017-Apr-22 03:28N 49°29' W 000°03'0 0.1
2017-Apr-22 02:58N 49°29' W 000°03'0 0.1
2017-Apr-22 02:28N 49°29' W 000°03'0 0.1
2017-Apr-22 01:58N 49°29' W 000°03'0 0.0
2017-Apr-22 01:28N 49°29' W 000°03'0 0.0
2017-Apr-22 01:01N 49°29' W 000°03'0 0.0
2017-Apr-22 00:31N 49°29' W 000°03'0 0.0
2017-Apr-22 00:00N 49°29' W 000°03'0 0.0
2017-Apr-21 23:30N 49°29' W 000°03'0 0.0
2017-Apr-21 23:00N 49°29' W 000°03'0 0.0
2017-Apr-21 22:30N 49°29' W 000°03'0 0.0
2017-Apr-21 22:00N 49°29' W 000°03'0 0.0
2017-Apr-21 21:30N 49°29' W 000°03'0 0.0
2017-Apr-21 21:00N 49°29' W 000°03'0 0.0
2017-Apr-21 20:30N 49°29' W 000°03'0 0.0
2017-Apr-21 20:00N 49°29' W 000°03'0 0.1
2017-Apr-21 19:30N 49°29' W 000°03'0 0.1
2017-Apr-21 19:00N 49°29' W 000°03'0 0.1
2017-Apr-21 18:30N 49°29' W 000°03'0 0.1
2017-Apr-21 18:00N 49°29' W 000°03'0 0.0
2017-Apr-21 17:30N 49°29' W 000°03'0 0.0
2017-Apr-21 17:00N 49°29' W 000°03'0 0.0
2017-Apr-21 16:30N 49°29' W 000°03'0 0.0
2017-Apr-21 16:00N 49°29' W 000°03'0 0.1
2017-Apr-21 15:30N 49°29' W 000°03'0 0.1
2017-Apr-21 15:00N 49°29' W 000°03'0 0.1
2017-Apr-21 14:30N 49°29' W 000°03'0 0.1
2017-Apr-21 13:30N 49°29' W 000°03'0 0.1
2017-Apr-21 13:00N 49°29' W 000°03'0 0.0
2017-Apr-21 12:30N 49°29' W 000°03'0 0.0
2017-Apr-21 12:00N 49°29' W 000°03'0 0.0
2017-Apr-21 11:30N 49°29' W 000°03'0 0.0
2017-Apr-21 11:00N 49°29' W 000°03'0 0.0
2017-Apr-21 10:30N 49°29' W 000°03'0 0.0
2017-Apr-21 10:00N 49°29' W 000°03'0 0.0
2017-Apr-21 09:30N 49°29' W 000°03'0 0.0
2017-Apr-21 09:00N 49°29' W 000°03'0 0.0
2017-Apr-21 08:30N 49°29' W 000°03'0 0.1
2017-Apr-21 07:57N 49°29' W 000°03'0 0.1
2017-Apr-21 07:30N 49°29' W 000°03'0 0.0
2017-Apr-21 07:00N 49°29' W 000°03'0 0.0
2017-Apr-21 06:30N 49°29' W 000°03'0 0.1
2017-Apr-21 06:00N 49°29' W 000°03'0 0.0
2017-Apr-21 05:30N 49°29' W 000°03'0 0.0
2017-Apr-21 05:00N 49°29' W 000°03'0 0.0
2017-Apr-21 04:30N 49°29' W 000°03'0 0.0
2017-Apr-21 04:00N 49°29' W 000°03'0 0.0
2017-Apr-21 03:30N 49°29' W 000°03'0 0.0
2017-Apr-21 03:00N 49°29' W 000°03'0 0.0
2017-Apr-21 02:30N 49°29' W 000°03'0 0.0
2017-Apr-21 02:00N 49°29' W 000°03'0 0.2
2017-Apr-21 01:30N 49°29' W 000°03'0 0.0
2017-Apr-21 01:00N 49°29' W 000°03'0 0.0
2017-Apr-21 00:30N 49°29' W 000°03'0 0.0
2017-Apr-21 00:00N 49°29' W 000°03'0 0.0
2017-Apr-20 23:30N 49°29' W 000°03'0 0.0
2017-Apr-20 23:00N 49°29' W 000°03'0 0.0
2017-Apr-20 22:30N 49°29' W 000°03'0 0.0
2017-Apr-20 22:00N 49°29' W 000°03'0 0.0
2017-Apr-20 21:30N 49°29' W 000°03'0 0.0
2017-Apr-20 21:00N 49°29' W 000°03'0 0.0
2017-Apr-20 20:30N 49°29' W 000°03'0 0.0
2017-Apr-20 20:00N 49°29' W 000°03'0 0.0
2017-Apr-20 19:30N 49°29' W 000°03'0 0.0
2017-Apr-20 19:00N 49°29' W 000°03'3 6.0
2017-Apr-20 18:30N 49°30' E 000°01'510.1
2017-Apr-20 18:00N 49°28' E 000°09'1 2.5
2017-Apr-20 17:30N 49°29' E 000°10'1 1.2
2017-Apr-20 17:00N 49°29' E 000°11'0 0.0
2017-Apr-20 16:29N 49°29' E 000°11'0 0.0
2017-Apr-20 15:59N 49°29' E 000°11'0 0.0
2017-Apr-20 15:29N 49°29' E 000°11'0 0.0
2017-Apr-20 14:59N 49°29' E 000°11'0 0.0
2017-Apr-20 13:59N 49°29' E 000°11'0 0.0
2017-Apr-20 13:29N 49°29' E 000°11'0 0.0
2017-Apr-20 12:59N 49°29' E 000°11'0 0.0
2017-Apr-20 12:29N 49°29' E 000°11'0 0.0
2017-Apr-20 11:59N 49°29' E 000°11'0 0.0
2017-Apr-20 11:29N 49°29' E 000°11'0 0.0
2017-Apr-20 10:59N 49°29' E 000°11'0 0.0
2017-Apr-20 10:29N 49°29' E 000°11'0 0.0
2017-Apr-20 09:59N 49°29' E 000°11'0 0.0
2017-Apr-20 09:29N 49°29' E 000°11'0 0.0
2017-Apr-20 08:59N 49°29' E 000°11'0 0.0
2017-Apr-20 08:29N 49°29' E 000°11'0 0.0
2017-Apr-20 07:59N 49°29' E 000°11'0 0.0
2017-Apr-20 07:29N 49°29' E 000°11'0 0.0
2017-Apr-20 06:59N 49°29' E 000°11'0 0.0
2017-Apr-20 06:28N 49°29' E 000°11'0 0.0
2017-Apr-20 05:58N 49°29' E 000°11'0 0.0
2017-Apr-20 05:28N 49°29' E 000°11'0 0.0
2017-Apr-20 04:58N 49°29' E 000°11'0 0.0
2017-Apr-20 04:28N 49°29' E 000°11'0 0.0
2017-Apr-20 03:58N 49°29' E 000°11'0 0.0
2017-Apr-20 03:28N 49°29' E 000°11'0 0.0
2017-Apr-20 02:58N 49°29' E 000°11'0 0.0
2017-Apr-20 02:28N 49°29' E 000°11'0 0.0
2017-Apr-20 01:58N 49°29' E 000°11'0 0.0
2017-Apr-20 01:28N 49°29' E 000°11'0 0.0
2017-Apr-20 00:58N 49°29' E 000°11'0 0.0
2017-Apr-20 00:28N 49°29' E 000°11'0 0.0
2017-Apr-19 23:58N 49°29' E 000°11'0 0.0
2017-Apr-19 23:28N 49°29' E 000°11'0 0.0
2017-Apr-19 22:58N 49°29' E 000°11'0 0.0
2017-Apr-19 22:28N 49°29' E 000°11'0 0.0
2017-Apr-19 21:58N 49°29' E 000°11'0 0.0
2017-Apr-19 21:28N 49°29' E 000°11'0 0.0
2017-Apr-19 20:58N 49°29' E 000°11'0 0.0
2017-Apr-19 20:28N 49°29' E 000°11'0 0.0
2017-Apr-19 19:58N 49°29' E 000°11'0 0.0
2017-Apr-19 19:28N 49°29' E 000°11'0 0.0
2017-Apr-19 18:58N 49°29' E 000°11'0 0.0
2017-Apr-19 18:28N 49°29' E 000°11'0 0.0
2017-Apr-19 17:58N 49°29' E 000°11'0 0.0
2017-Apr-19 17:28N 49°29' E 000°11'0 0.0
2017-Apr-19 16:58N 49°29' E 000°11'0 0.0
2017-Apr-19 16:28N 49°29' E 000°11'0 0.0
2017-Apr-19 15:58N 49°29' E 000°11'0 0.0
2017-Apr-19 15:28N 49°29' E 000°11'0 0.0
2017-Apr-19 14:58N 49°29' E 000°11'0 0.0
2017-Apr-19 14:28N 49°29' E 000°11'0 0.0
2017-Apr-19 13:31N 49°29' E 000°11'0 0.0
2017-Apr-19 13:01N 49°29' E 000°11'1 1.2
2017-Apr-19 12:30N 49°29' E 000°10'0 0.3
2017-Apr-19 12:00N 49°28' E 000°10'1 1.6
2017-Apr-19 11:30N 49°28' E 000°09'4 7.2
2017-Apr-19 11:00N 49°29' E 000°04'612.9
2017-Apr-19 10:30N 49°31' W 000°06'5 9.1
2017-Apr-19 10:01N 49°33' W 000°12'2 4.9
2017-Apr-19 09:30N 49°32' W 000°09'2 4.2
2017-Apr-19 09:00N 49°33' W 000°05'510.1
2017-Apr-19 08:30N 49°38' W 000°05'510.3
2017-Apr-19 08:00N 49°43' W 000°04'510.5
2017-Apr-19 07:30N 49°47' E 000°01'510.8
2017-Apr-19 07:00N 49°51' E 000°07'611.9
2017-Apr-19 06:30N 49°56' E 000°13'714.9
2017-Apr-19 06:00N 50°02' E 000°20'3313.7
2017-Apr-19 03:36N 50°32' E 000°41'313.7
2017-Apr-19 03:22N 50°35' E 000°40'412.7
2017-Apr-19 03:00N 50°38' E 000°45'713.6
2017-Apr-19 02:30N 50°43' E 000°53'713.6
2017-Apr-19 01:59N 50°47' E 001°02'813.8
2017-Apr-19 01:26N 50°51' E 001°12'614.4
2017-Apr-19 01:01N 50°55' E 001°19'815.3
2017-Apr-19 00:30N 51°02' E 001°26'816.1
2017-Apr-19 00:01N 51°07' E 001°35'816.1
2017-Apr-18 23:30N 51°13' E 001°44'815.6
2017-Apr-18 23:01N 51°20' E 001°51'714.5
2017-Apr-18 22:31N 51°25' E 001°59'713.8
2017-Apr-18 22:00N 51°22' E 002°09'713.3
2017-Apr-18 21:30N 51°21' E 002°20'714.3
2017-Apr-18 21:01N 51°23' E 002°30'714.0
2017-Apr-18 20:30N 51°22' E 002°42'612.4
2017-Apr-18 20:00N 51°22' E 002°52'713.4
2017-Apr-18 19:30N 51°24' E 003°02'713.2
2017-Apr-18 19:00N 51°24' E 003°12'713.5
2017-Apr-18 18:30N 51°25' E 003°23'713.6
2017-Apr-18 18:00N 51°26' E 003°34'5 9.4
2017-Apr-18 17:29N 51°25' E 003°42'611.0
2017-Apr-18 16:59N 51°21' E 003°48'10 7.9
2017-Apr-18 15:41N 51°22' E 004°04'510.9
2017-Apr-18 15:14N 51°24' E 004°12'311.4
2017-Apr-18 15:00N 51°22' E 004°14'2 4.7
2017-Apr-18 14:30N 51°21' E 004°17'0 0.0
2017-Apr-18 13:30N 51°21' E 004°17'1 1.8
2017-Apr-18 13:00N 51°20' E 004°18'4 7.9
2017-Apr-18 12:31N 51°16' E 004°20'0 0.3
2017-Apr-18 11:33N 51°16' E 004°20'0 0.0
2017-Apr-18 11:27N 51°16' E 004°20'0 0.0
2017-Apr-18 11:00N 51°16' E 004°20'0 0.0
2017-Apr-18 10:27N 51°16' E 004°20'0 0.0
2017-Apr-18 09:57N 51°16' E 004°20'0 0.0
2017-Apr-18 09:27N 51°16' E 004°20'0 0.0
2017-Apr-18 08:54N 51°16' E 004°20'0 0.0
2017-Apr-18 08:30N 51°16' E 004°20'0 0.0
2017-Apr-18 08:00N 51°16' E 004°20'0 0.0
2017-Apr-18 07:30N 51°16' E 004°20'0 0.0
2017-Apr-18 06:54N 51°16' E 004°20'0 0.0
2017-Apr-18 06:27N 51°16' E 004°20'0 0.0
2017-Apr-18 05:57N 51°16' E 004°20'0 0.0
2017-Apr-18 05:21N 51°16' E 004°20'0 0.0
2017-Apr-18 04:57N 51°16' E 004°20'0 0.0
2017-Apr-18 04:15N 51°16' E 004°20'  
Track history (hours):
 
Tides and Currents Weather Stations Pressure Air Temp Water Temp Dewpoint Dewpoint Depression Visibility Wind Speed Wind Dir Waves Ship Positions

Chantaco

Last reported at 2017-Apr-28 04:00 UTC. Time now 2017-Apr-28 04:22 UTC.
Position N 53°38' W 000°10'.

Length 143 m; draft 6.5 m.

Type: Tanker. MMSI: 228330700.

Date/timePositionNaut miles runAvg speedWind from/ knotsBaromVisibWave heightAir tempDewpointWater temp
2017-Apr-28 04:00N 53°38' W 000°10'0 0.0
2017-Apr-28 03:30N 53°38' W 000°10'0 0.0
2017-Apr-28 03:00N 53°38' W 000°10'0 0.0
2017-Apr-28 02:30N 53°38' W 000°10'0 0.0
2017-Apr-28 02:00N 53°38' W 000°10'0 0.0
2017-Apr-28 01:30N 53°38' W 000°10'0 0.0
2017-Apr-28 01:00N 53°38' W 000°10'2 3.0
2017-Apr-28 00:30N 53°37' W 000°07'4 8.8
2017-Apr-28 00:00N 53°37' W 000°00'5 9.4
2017-Apr-27 23:30N 53°34' E 000°06'39 1.8
2017-Apr-27 02:26N 53°22' E 001°08'4 9.6
2017-Apr-27 02:00N 53°18' E 001°12'510.2
2017-Apr-27 01:30N 53°14' E 001°17'510.7
2017-Apr-27 01:00N 53°09' E 001°21'510.9
2017-Apr-27 00:30N 53°05' E 001°26'611.7
2017-Apr-27 00:00N 52°60' E 001°32'611.6
2017-Apr-26 23:30N 52°56' E 001°38'510.6
2017-Apr-26 23:00N 52°52' E 001°45'510.2
2017-Apr-26 22:30N 52°49' E 001°51'5 9.2
2017-Apr-26 22:00N 52°46' E 001°58'4 8.0
2017-Apr-26 21:30N 52°43' E 002°01'4 7.7
2017-Apr-26 21:00N 52°39' E 002°03'4 7.2
2017-Apr-26 20:30N 52°36' E 002°05'62 8.3
2017-Apr-26 13:01N 51°34' E 002°18'1 9.1
2017-Apr-26 12:51N 51°33' E 002°17'4 9.3
2017-Apr-26 12:22N 51°30' E 002°12'4 9.4
2017-Apr-26 11:55N 51°27' E 002°08'4 9.4
2017-Apr-26 11:30N 51°24' E 002°04'5 9.5
2017-Apr-26 11:00N 51°20' E 001°59'5 9.5
2017-Apr-26 10:30N 51°17' E 001°54'5 9.7
2017-Apr-26 10:00N 51°13' E 001°49'5 9.1
2017-Apr-26 09:30N 51°09' E 001°44'4 8.0
2017-Apr-26 09:00N 51°06' E 001°40'4 7.0
2017-Apr-26 08:30N 51°03' E 001°37'3 6.0
2017-Apr-26 08:00N 51°01' E 001°34'3 6.3
2017-Apr-26 07:30N 50°59' E 001°31'4 7.2
2017-Apr-26 07:00N 50°56' E 001°27'4 7.6
2017-Apr-26 06:30N 50°52' E 001°25'4 8.0
2017-Apr-26 06:00N 50°49' E 001°24'4 8.4
2017-Apr-26 05:30N 50°44' E 001°22'55 8.7
2017-Apr-25 23:09N 50°04' E 000°23'1 8.7
2017-Apr-25 23:00N 50°03' E 000°22'4 8.1
2017-Apr-25 22:30N 49°60' E 000°18'4 8.6
2017-Apr-25 22:00N 49°57' E 000°14'5 9.3
2017-Apr-25 21:30N 49°53' E 000°09'5 9.9
2017-Apr-25 21:00N 49°49' E 000°04'510.2
2017-Apr-25 20:30N 49°46' W 000°01'5 9.3
2017-Apr-25 20:00N 49°41' W 000°04'5 9.8
2017-Apr-25 19:30N 49°36' W 000°05'5 9.2
2017-Apr-25 19:00N 49°32' W 000°05'3 5.6
2017-Apr-25 18:30N 49°29' W 000°03'0 0.1
2017-Apr-25 18:00N 49°29' W 000°03'0 0.1
2017-Apr-25 17:30N 49°29' W 000°03'0 0.1
2017-Apr-25 17:00N 49°29' W 000°03'0 0.0
2017-Apr-25 16:30N 49°29' W 000°03'0 0.0
2017-Apr-25 16:00N 49°29' W 000°03'0 0.0
2017-Apr-25 15:30N 49°29' W 000°03'0 0.0
2017-Apr-25 15:00N 49°29' W 000°03'0 0.0
2017-Apr-25 14:30N 49°29' W 000°03'0 0.0
2017-Apr-25 13:30N 49°29' W 000°03'0 0.0
2017-Apr-25 13:00N 49°29' W 000°03'0 0.0
2017-Apr-25 12:30N 49°29' W 000°03'0 0.0
2017-Apr-25 12:00N 49°29' W 000°03'0 0.0
2017-Apr-25 11:30N 49°29' W 000°03'0 0.0
2017-Apr-25 11:00N 49°29' W 000°03'0 0.0
2017-Apr-25 10:30N 49°29' W 000°03'0 0.1
2017-Apr-25 10:00N 49°29' W 000°03'0 0.1
2017-Apr-25 09:30N 49°29' W 000°03'0 0.1
2017-Apr-25 09:00N 49°29' W 000°03'0 0.0
2017-Apr-25 08:30N 49°29' W 000°03'0 0.0
2017-Apr-25 08:00N 49°29' W 000°03'0 0.0
2017-Apr-25 07:30N 49°29' W 000°03'0 0.0
2017-Apr-25 07:00N 49°29' W 000°03'0 0.0
2017-Apr-25 06:30N 49°29' W 000°03'0 0.0
2017-Apr-25 06:00N 49°29' W 000°03'0 0.1
2017-Apr-25 05:30N 49°29' W 000°03'0 0.1
2017-Apr-25 05:00N 49°29' W 000°03'0 0.0
2017-Apr-25 04:30N 49°29' W 000°03'0 0.0
2017-Apr-25 04:00N 49°29' W 000°03'0 0.0
2017-Apr-25 03:30N 49°29' W 000°03'0 0.0
2017-Apr-25 03:00N 49°29' W 000°03'0 0.0
2017-Apr-25 02:30N 49°29' W 000°03'0 0.0
2017-Apr-25 02:00N 49°29' W 000°03'0 0.0
2017-Apr-25 01:30N 49°29' W 000°03'0 0.0
2017-Apr-25 01:00N 49°29' W 000°03'0 0.0
2017-Apr-25 00:29N 49°29' W 000°03'0 0.0
2017-Apr-24 23:59N 49°29' W 000°03'0 0.0
2017-Apr-24 23:29N 49°29' W 000°03'0 0.1
2017-Apr-24 22:59N 49°29' W 000°03'0 0.1
2017-Apr-24 22:29N 49°29' W 000°03'0 0.0
2017-Apr-24 21:59N 49°29' W 000°03'0 0.1
2017-Apr-24 21:29N 49°29' W 000°03'0 0.0
2017-Apr-24 20:59N 49°29' W 000°03'0 0.0
2017-Apr-24 20:29N 49°29' W 000°03'0 0.0
2017-Apr-24 19:59N 49°29' W 000°03'0 0.0
2017-Apr-24 19:29N 49°29' W 000°03'0 0.0
2017-Apr-24 18:59N 49°29' W 000°03'0 0.0
2017-Apr-24 18:29N 49°29' W 000°03'0 0.1
2017-Apr-24 17:59N 49°29' W 000°03'0 0.1
2017-Apr-24 17:29N 49°29' W 000°03'0 0.0
2017-Apr-24 16:59N 49°29' W 000°03'0 0.1
2017-Apr-24 16:29N 49°29' W 000°03'0 0.1
2017-Apr-24 15:59N 49°29' W 000°03'0 0.0
2017-Apr-24 15:26N 49°29' W 000°03'0 0.0
2017-Apr-24 14:59N 49°29' W 000°03'0 0.0
2017-Apr-24 14:29N 49°29' W 000°03'0 0.0
2017-Apr-24 13:29N 49°29' W 000°03'0 0.0
2017-Apr-24 12:59N 49°29' W 000°03'0 0.1
2017-Apr-24 12:29N 49°29' W 000°03'0 0.1
2017-Apr-24 11:59N 49°29' W 000°03'0 0.0
2017-Apr-24 11:29N 49°29' W 000°03'0 0.1
2017-Apr-24 10:59N 49°29' W 000°03'0 0.0
2017-Apr-24 10:29N 49°29' W 000°03'0 0.0
2017-Apr-24 09:59N 49°29' W 000°03'0 0.0
2017-Apr-24 09:29N 49°29' W 000°03'0 0.0
2017-Apr-24 08:59N 49°29' W 000°03'0 0.0
2017-Apr-24 08:29N 49°29' W 000°03'0 0.0
2017-Apr-24 07:59N 49°29' W 000°03'0 0.0
2017-Apr-24 07:29N 49°29' W 000°03'0 0.0
2017-Apr-24 06:59N 49°29' W 000°03'0 0.0
2017-Apr-24 06:29N 49°29' W 000°03'0 0.0
2017-Apr-24 05:59N 49°29' W 000°03'0 0.1
2017-Apr-24 05:29N 49°29' W 000°03'0 0.0
2017-Apr-24 04:59N 49°29' W 000°03'0 0.1
2017-Apr-24 04:26N 49°29' W 000°03'0 0.1
2017-Apr-24 03:59N 49°29' W 000°03'0 0.1
2017-Apr-24 03:29N 49°29' W 000°03'0 0.1
2017-Apr-24 02:59N 49°29' W 000°03'0 0.0
2017-Apr-24 02:29N 49°29' W 000°03'0 0.0
2017-Apr-24 01:59N 49°29' W 000°03'0 0.0
2017-Apr-24 01:29N 49°29' W 000°03'0 0.0
2017-Apr-24 00:59N 49°29' W 000°03'0 0.0
2017-Apr-24 00:29N 49°29' W 000°03'0 0.0
2017-Apr-23 23:59N 49°29' W 000°03'0 0.0
2017-Apr-23 23:29N 49°29' W 000°03'0 0.1
2017-Apr-23 22:59N 49°29' W 000°03'0 0.0
2017-Apr-23 22:29N 49°29' W 000°03'0 0.0
2017-Apr-23 21:59N 49°29' W 000°03'0 0.0
2017-Apr-23 21:29N 49°29' W 000°03'0 0.2
2017-Apr-23 20:59N 49°29' W 000°03'0 0.1
2017-Apr-23 20:29N 49°29' W 000°03'0 0.0
2017-Apr-23 19:59N 49°29' W 000°03'0 0.1
2017-Apr-23 19:29N 49°29' W 000°03'0 0.0
2017-Apr-23 18:59N 49°29' W 000°03'0 0.0
2017-Apr-23 18:29N 49°29' W 000°03'0 0.0
2017-Apr-23 17:59N 49°29' W 000°03'0 0.2
2017-Apr-23 17:29N 49°29' W 000°03'0 0.1
2017-Apr-23 16:59N 49°29' W 000°03'0 0.0
2017-Apr-23 16:29N 49°29' W 000°03'0 0.0
2017-Apr-23 15:59N 49°29' W 000°03'0 0.0
2017-Apr-23 15:29N 49°29' W 000°03'0 0.0
2017-Apr-23 14:59N 49°29' W 000°03'0 0.0
2017-Apr-23 13:59N 49°29' W 000°03'0 0.0
2017-Apr-23 13:29N 49°29' W 000°03'0 0.0
2017-Apr-23 12:59N 49°29' W 000°03'0 0.0
2017-Apr-23 12:28N 49°29' W 000°03'0 0.0
2017-Apr-23 11:58N 49°29' W 000°03'0 0.0
2017-Apr-23 11:28N 49°29' W 000°03'0 0.0
2017-Apr-23 10:58N 49°29' W 000°03'0 0.1
2017-Apr-23 10:28N 49°29' W 000°03'0 0.0
2017-Apr-23 09:58N 49°29' W 000°03'0 0.1
2017-Apr-23 09:28N 49°29' W 000°03'0 0.1
2017-Apr-23 08:58N 49°29' W 000°03'0 0.1
2017-Apr-23 08:28N 49°29' W 000°03'0 0.0
2017-Apr-23 07:58N 49°29' W 000°03'0 0.0
2017-Apr-23 07:28N 49°29' W 000°03'0 0.0
2017-Apr-23 06:58N 49°29' W 000°03'0 0.0
2017-Apr-23 06:28N 49°29' W 000°03'0 0.0
2017-Apr-23 05:58N 49°29' W 000°03'0 0.0
2017-Apr-23 05:28N 49°29' W 000°03'0 0.1
2017-Apr-23 04:58N 49°29' W 000°03'0 0.0
2017-Apr-23 04:28N 49°29' W 000°03'0 0.1
2017-Apr-23 03:58N 49°29' W 000°03'0 0.1
2017-Apr-23 03:28N 49°29' W 000°03'0 0.1
2017-Apr-23 02:58N 49°29' W 000°03'0 0.0
2017-Apr-23 02:28N 49°29' W 000°03'0 0.0
2017-Apr-23 01:58N 49°29' W 000°03'0 0.0
2017-Apr-23 01:28N 49°29' W 000°03'0 0.0
2017-Apr-23 00:58N 49°29' W 000°03'0 0.0
2017-Apr-23 00:28N 49°29' W 000°03'0 0.0
2017-Apr-22 23:58N 49°29' W 000°03'0 0.0
2017-Apr-22 23:28N 49°29' W 000°03'0 0.0
2017-Apr-22 22:58N 49°29' W 000°03'0 0.0
2017-Apr-22 22:28N 49°29' W 000°03'0 0.0
2017-Apr-22 21:58N 49°29' W 000°03'0 0.0
2017-Apr-22 21:28N 49°29' W 000°03'0 0.0
2017-Apr-22 20:58N 49°29' W 000°03'0 0.1
2017-Apr-22 20:28N 49°29' W 000°03'0 0.1
2017-Apr-22 19:58N 49°29' W 000°03'0 0.1
2017-Apr-22 19:28N 49°29' W 000°03'0 0.0
2017-Apr-22 18:58N 49°29' W 000°03'0 0.1
2017-Apr-22 18:28N 49°29' W 000°03'0 0.1
2017-Apr-22 17:58N 49°29' W 000°03'0 0.3
2017-Apr-22 17:28N 49°29' W 000°03'0 0.0
2017-Apr-22 16:58N 49°29' W 000°03'0 0.0
2017-Apr-22 16:28N 49°29' W 000°03'0 0.0
2017-Apr-22 15:58N 49°29' W 000°03'0 0.1
2017-Apr-22 15:28N 49°29' W 000°03'0 0.1
2017-Apr-22 14:58N 49°29' W 000°03'0 0.1
2017-Apr-22 14:28N 49°29' W 000°03'0 0.0
2017-Apr-22 13:28N 49°29' W 000°03'0 0.0
2017-Apr-22 12:58N 49°29' W 000°03'0 0.0
2017-Apr-22 12:28N 49°29' W 000°03'0 0.0
2017-Apr-22 11:58N 49°29' W 000°03'0 0.0
2017-Apr-22 11:28N 49°29' W 000°03'0 0.0
2017-Apr-22 10:58N 49°29' W 000°03'0 0.0
2017-Apr-22 10:28N 49°29' W 000°03'0 0.0
2017-Apr-22 09:58N 49°29' W 000°03'0 0.0
2017-Apr-22 09:28N 49°29' W 000°03'0 0.0
2017-Apr-22 08:58N 49°29' W 000°03'0 0.1
2017-Apr-22 08:28N 49°29' W 000°03'0 0.2
2017-Apr-22 07:58N 49°29' W 000°03'0 0.1
2017-Apr-22 07:28N 49°29' W 000°03'0 0.0
2017-Apr-22 06:58N 49°29' W 000°03'0 0.0
2017-Apr-22 06:28N 49°29' W 000°03'0 0.0
2017-Apr-22 05:58N 49°29' W 000°03'0 0.0
2017-Apr-22 05:28N 49°29' W 000°03'0 0.0
2017-Apr-22 04:58N 49°29' W 000°03'0 0.0
2017-Apr-22 04:28N 49°29' W 000°03'0 0.0
2017-Apr-22 03:58N 49°29' W 000°03'0 0.1
2017-Apr-22 03:28N 49°29' W 000°03'0 0.1
2017-Apr-22 02:58N 49°29' W 000°03'0 0.1
2017-Apr-22 02:28N 49°29' W 000°03'0 0.1
2017-Apr-22 01:58N 49°29' W 000°03'0 0.0
2017-Apr-22 01:28N 49°29' W 000°03'0 0.0
2017-Apr-22 01:01N 49°29' W 000°03'0 0.0
2017-Apr-22 00:31N 49°29' W 000°03'0 0.0
2017-Apr-22 00:00N 49°29' W 000°03'0 0.0
2017-Apr-21 23:30N 49°29' W 000°03'0 0.0
2017-Apr-21 23:00N 49°29' W 000°03'0 0.0
2017-Apr-21 22:30N 49°29' W 000°03'0 0.0
2017-Apr-21 22:00N 49°29' W 000°03'0 0.0
2017-Apr-21 21:30N 49°29' W 000°03'0 0.0
2017-Apr-21 21:00N 49°29' W 000°03'0 0.0
2017-Apr-21 20:30N 49°29' W 000°03'0 0.0
2017-Apr-21 20:00N 49°29' W 000°03'0 0.1
2017-Apr-21 19:30N 49°29' W 000°03'0 0.1
2017-Apr-21 19:00N 49°29' W 000°03'0 0.1
2017-Apr-21 18:30N 49°29' W 000°03'0 0.1
2017-Apr-21 18:00N 49°29' W 000°03'0 0.0
2017-Apr-21 17:30N 49°29' W 000°03'0 0.0
2017-Apr-21 17:00N 49°29' W 000°03'0 0.0
2017-Apr-21 16:30N 49°29' W 000°03'0 0.0
2017-Apr-21 16:00N 49°29' W 000°03'0 0.1
2017-Apr-21 15:30N 49°29' W 000°03'0 0.1
2017-Apr-21 15:00N 49°29' W 000°03'0 0.1
2017-Apr-21 14:30N 49°29' W 000°03'0 0.1
2017-Apr-21 13:30N 49°29' W 000°03'0 0.1
2017-Apr-21 13:00N 49°29' W 000°03'0 0.0
2017-Apr-21 12:30N 49°29' W 000°03'0 0.0
2017-Apr-21 12:00N 49°29' W 000°03'0 0.0
2017-Apr-21 11:30N 49°29' W 000°03'0 0.0
2017-Apr-21 11:00N 49°29' W 000°03'0 0.0
2017-Apr-21 10:30N 49°29' W 000°03'0 0.0
2017-Apr-21 10:00N 49°29' W 000°03'0 0.0
2017-Apr-21 09:30N 49°29' W 000°03'0 0.0
2017-Apr-21 09:00N 49°29' W 000°03'0 0.0
2017-Apr-21 08:30N 49°29' W 000°03'0 0.1
2017-Apr-21 07:57N 49°29' W 000°03'0 0.1
2017-Apr-21 07:30N 49°29' W 000°03'0 0.0
2017-Apr-21 07:00N 49°29' W 000°03'0 0.0
2017-Apr-21 06:30N 49°29' W 000°03'0 0.1
2017-Apr-21 06:00N 49°29' W 000°03'0 0.0
2017-Apr-21 05:30N 49°29' W 000°03'0 0.0
2017-Apr-21 05:00N 49°29' W 000°03'0 0.0
2017-Apr-21 04:30N 49°29' W 000°03'0 0.0
2017-Apr-21 04:00N 49°29' W 000°03'0 0.0
2017-Apr-21 03:30N 49°29' W 000°03'0 0.0
2017-Apr-21 03:00N 49°29' W 000°03'0 0.0
2017-Apr-21 02:30N 49°29' W 000°03'0 0.0
2017-Apr-21 02:00N 49°29' W 000°03'0 0.2
2017-Apr-21 01:30N 49°29' W 000°03'0 0.0
2017-Apr-21 01:00N 49°29' W 000°03'0 0.0
2017-Apr-21 00:30N 49°29' W 000°03'0 0.0
2017-Apr-21 00:00N 49°29' W 000°03'0 0.0
2017-Apr-20 23:30N 49°29' W 000°03'0 0.0
2017-Apr-20 23:00N 49°29' W 000°03'0 0.0
2017-Apr-20 22:30N 49°29' W 000°03'0 0.0
2017-Apr-20 22:00N 49°29' W 000°03'0 0.0
2017-Apr-20 21:30N 49°29' W 000°03'0 0.0
2017-Apr-20 21:00N 49°29' W 000°03'0 0.0
2017-Apr-20 20:30N 49°29' W 000°03'0 0.0
2017-Apr-20 20:00N 49°29' W 000°03'0 0.0
2017-Apr-20 19:30N 49°29' W 000°03'0 0.0
2017-Apr-20 19:00N 49°29' W 000°03'3 6.0
2017-Apr-20 18:30N 49°30' E 000°01'510.1
2017-Apr-20 18:00N 49°28' E 000°09'1 2.5
2017-Apr-20 17:30N 49°29' E 000°10'1 1.2
2017-Apr-20 17:00N 49°29' E 000°11'0 0.0
2017-Apr-20 16:29N 49°29' E 000°11'0 0.0
2017-Apr-20 15:59N 49°29' E 000°11'0 0.0
2017-Apr-20 15:29N 49°29' E 000°11'0 0.0
2017-Apr-20 14:59N 49°29' E 000°11'0 0.0
2017-Apr-20 13:59N 49°29' E 000°11'0 0.0
2017-Apr-20 13:29N 49°29' E 000°11'0 0.0
2017-Apr-20 12:59N 49°29' E 000°11'0 0.0
2017-Apr-20 12:29N 49°29' E 000°11'0 0.0
2017-Apr-20 11:59N 49°29' E 000°11'0 0.0
2017-Apr-20 11:29N 49°29' E 000°11'0 0.0
2017-Apr-20 10:59N 49°29' E 000°11'0 0.0
2017-Apr-20 10:29N 49°29' E 000°11'0 0.0
2017-Apr-20 09:59N 49°29' E 000°11'0 0.0
2017-Apr-20 09:29N 49°29' E 000°11'0 0.0
2017-Apr-20 08:59N 49°29' E 000°11'0 0.0
2017-Apr-20 08:29N 49°29' E 000°11'0 0.0
2017-Apr-20 07:59N 49°29' E 000°11'0 0.0
2017-Apr-20 07:29N 49°29' E 000°11'0 0.0
2017-Apr-20 06:59N 49°29' E 000°11'0 0.0
2017-Apr-20 06:28N 49°29' E 000°11'0 0.0
2017-Apr-20 05:58N 49°29' E 000°11'0 0.0
2017-Apr-20 05:28N 49°29' E 000°11'0 0.0
2017-Apr-20 04:58N 49°29' E 000°11'0 0.0
2017-Apr-20 04:28N 49°29' E 000°11'0 0.0
2017-Apr-20 03:58N 49°29' E 000°11'0 0.0
2017-Apr-20 03:28N 49°29' E 000°11'0 0.0
2017-Apr-20 02:58N 49°29' E 000°11'0 0.0
2017-Apr-20 02:28N 49°29' E 000°11'0 0.0
2017-Apr-20 01:58N 49°29' E 000°11'0 0.0
2017-Apr-20 01:28N 49°29' E 000°11'0 0.0
2017-Apr-20 00:58N 49°29' E 000°11'0 0.0
2017-Apr-20 00:28N 49°29' E 000°11'0 0.0
2017-Apr-19 23:58N 49°29' E 000°11'0 0.0
2017-Apr-19 23:28N 49°29' E 000°11'0 0.0
2017-Apr-19 22:58N 49°29' E 000°11'0 0.0
2017-Apr-19 22:28N 49°29' E 000°11'0 0.0
2017-Apr-19 21:58N 49°29' E 000°11'0 0.0
2017-Apr-19 21:28N 49°29' E 000°11'0 0.0
2017-Apr-19 20:58N 49°29' E 000°11'0 0.0
2017-Apr-19 20:28N 49°29' E 000°11'0 0.0
2017-Apr-19 19:58N 49°29' E 000°11'0 0.0
2017-Apr-19 19:28N 49°29' E 000°11'0 0.0
2017-Apr-19 18:58N 49°29' E 000°11'0 0.0
2017-Apr-19 18:28N 49°29' E 000°11'0 0.0
2017-Apr-19 17:58N 49°29' E 000°11'0 0.0
2017-Apr-19 17:28N 49°29' E 000°11'0 0.0
2017-Apr-19 16:58N 49°29' E 000°11'0 0.0
2017-Apr-19 16:28N 49°29' E 000°11'0 0.0
2017-Apr-19 15:58N 49°29' E 000°11'0 0.0
2017-Apr-19 15:28N 49°29' E 000°11'0 0.0
2017-Apr-19 14:58N 49°29' E 000°11'0 0.0
2017-Apr-19 14:28N 49°29' E 000°11'0 0.0
2017-Apr-19 13:31N 49°29' E 000°11'0 0.0
2017-Apr-19 13:01N 49°29' E 000°11'1 1.2
2017-Apr-19 12:30N 49°29' E 000°10'0 0.3
2017-Apr-19 12:00N 49°28' E 000°10'1 1.6
2017-Apr-19 11:30N 49°28' E 000°09'4 7.2
2017-Apr-19 11:00N 49°29' E 000°04'612.9
2017-Apr-19 10:30N 49°31' W 000°06'5 9.1
2017-Apr-19 10:01N 49°33' W 000°12'2 4.9
2017-Apr-19 09:30N 49°32' W 000°09'2 4.2
2017-Apr-19 09:00N 49°33' W 000°05'510.1
2017-Apr-19 08:30N 49°38' W 000°05'510.3
2017-Apr-19 08:00N 49°43' W 000°04'510.5
2017-Apr-19 07:30N 49°47' E 000°01'510.8
2017-Apr-19 07:00N 49°51' E 000°07'611.9
2017-Apr-19 06:30N 49°56' E 000°13'714.9
2017-Apr-19 06:00N 50°02' E 000°20'3313.7
2017-Apr-19 03:36N 50°32' E 000°41'313.7
2017-Apr-19 03:22N 50°35' E 000°40'412.7
2017-Apr-19 03:00N 50°38' E 000°45'713.6
2017-Apr-19 02:30N 50°43' E 000°53'713.6
2017-Apr-19 01:59N 50°47' E 001°02'813.8
2017-Apr-19 01:26N 50°51' E 001°12'614.4
2017-Apr-19 01:01N 50°55' E 001°19'815.3
2017-Apr-19 00:30N 51°02' E 001°26'816.1
2017-Apr-19 00:01N 51°07' E 001°35'816.1
2017-Apr-18 23:30N 51°13' E 001°44'815.6
2017-Apr-18 23:01N 51°20' E 001°51'714.5
2017-Apr-18 22:31N 51°25' E 001°59'713.8
2017-Apr-18 22:00N 51°22' E 002°09'713.3
2017-Apr-18 21:30N 51°21' E 002°20'714.3
2017-Apr-18 21:01N 51°23' E 002°30'714.0
2017-Apr-18 20:30N 51°22' E 002°42'612.4
2017-Apr-18 20:00N 51°22' E 002°52'713.4
2017-Apr-18 19:30N 51°24' E 003°02'713.2
2017-Apr-18 19:00N 51°24' E 003°12'713.5
2017-Apr-18 18:30N 51°25' E 003°23'713.6
2017-Apr-18 18:00N 51°26' E 003°34'5 9.4
2017-Apr-18 17:29N 51°25' E 003°42'611.0
2017-Apr-18 16:59N 51°21' E 003°48'10 7.9
2017-Apr-18 15:41N 51°22' E 004°04'510.9
2017-Apr-18 15:14N 51°24' E 004°12'311.4
2017-Apr-18 15:00N 51°22' E 004°14'2 4.7
2017-Apr-18 14:30N 51°21' E 004°17'0 0.0
2017-Apr-18 13:30N 51°21' E 004°17'1 1.8
2017-Apr-18 13:00N 51°20' E 004°18'4 7.9
2017-Apr-18 12:31N 51°16' E 004°20'0 0.3
2017-Apr-18 11:33N 51°16' E 004°20'0 0.0
2017-Apr-18 11:27N 51°16' E 004°20'0 0.0
2017-Apr-18 11:00N 51°16' E 004°20'0 0.0
2017-Apr-18 10:27N 51°16' E 004°20'0 0.0
2017-Apr-18 09:57N 51°16' E 004°20'0 0.0
2017-Apr-18 09:27N 51°16' E 004°20'0 0.0
2017-Apr-18 08:54N 51°16' E 004°20'0 0.0
2017-Apr-18 08:30N 51°16' E 004°20'0 0.0
2017-Apr-18 08:00N 51°16' E 004°20'0 0.0
2017-Apr-18 07:30N 51°16' E 004°20'0 0.0
2017-Apr-18 06:54N 51°16' E 004°20'0 0.0
2017-Apr-18 06:27N 51°16' E 004°20'0 0.0
2017-Apr-18 05:57N 51°16' E 004°20'0 0.0
2017-Apr-18 05:21N 51°16' E 004°20'0 0.0
2017-Apr-18 04:57N 51°16' E 004°20'0 0.0
2017-Apr-18 04:15N 51°16' E 004°20'  

Dump ship's entire track history